KRVS/RVS METAR and TAF weather

Enter ICAO airport designator
Station Type Date Time Source
KRVS METAR 2022/01/23 11:53 UTC NOAA

KRVS 231153Z AUTO 00000KT 10SM CLR M05/M09 A3016 RMK AO2 SLP222 T10501089 11022 21056 56017


Station Type Date Time Source
KRVS Decoded METAR 2022/01/23 11:53 UTC NOAA

TULSA JONES JR. AIRPORT, OK, United States (KRVS) 36-03N 095-59W 200M
Jan 23, 2022 - 06:53 AM EST / 2022.01.23 1153 UTC
Wind: Calm:0
Visibility: 10 mile(s):0
Sky conditions: clear
Temperature: 23.0 F (-5.0 C)
Dew Point: 16.0 F (-8.9 C)
Relative Humidity: 74%
Pressure (altimeter): 30.16 in. Hg (1021 hPa)
Pressure tendency: 0.05 inches (1.7 hPa) lower than three hours ago
ob: KRVS 231153Z AUTO 00000KT 10SM CLR M05/M09 A3016 RMK AO2 SLP222 T10501089 11022 21056 56017
cycle: 12

Station Type Date Time Source
KRVS TAF 2022/01/23 12:22 UTC NOAA

TAF KRVS 231120Z 2312/2412 24005KT P6SM SKC
FM231600 33006KT P6SM SKC
FM240000 19003KT P6SM SKC

Example: see airport list